This is the latest recevied weather packets stored in our database for station/object W7BL. If no packets are shown the sender has not sent any weather packets the latest 10 day(s).
| Time | Temp. | Humidity | Pressure | Rain* | Wind** | Luminosity | Snow |
|---|---|---|---|---|---|---|---|
| 1777994091 | 17.78° C | 55% | - | 0 mm | - | - | - |
| 1777993789 | 17.78° C | 55% | - | 0 mm | - | - | - |
| 1777993485 | 17.22° C | 56% | - | 0 mm | - | - | - |
| 1777993185 | 17.78° C | 55% | - | 0 mm | - | - | - |
| 1777992883 | 17.78° C | 55% | - | 0 mm | - | - | - |
| 1777992581 | 17.22° C | 55% | - | 0 mm | - | - | - |
| 1777992279 | 17.22° C | 56% | - | 0 mm | - | - | - |
| 1777991976 | 17.22° C | 56% | - | 0 mm | - | - | - |
| 1777991674 | 16.67° C | 57% | - | 0 mm | - | - | - |
| 1777991370 | 16.67° C | 56% | - | 0 mm | - | - | - |
| 1777991068 | 16.67° C | 56% | - | 0 mm | - | - | - |
| 1777990765 | 16.11° C | 57% | - | 0 mm | - | - | - |
| 1777990462 | 15.56° C | 57% | - | 0 mm | - | - | - |
| 1777989855 | 15° C | 58% | - | 0 mm | - | - | - |
| 1777989552 | 15° C | 58% | - | 0 mm | - | - | - |
| 1777989249 | 15° C | 58% | - | 0 mm | - | - | - |
| 1777988945 | 12.78° C | 65% | - | 0 mm | - | - | - |
| 1777988642 | 11.67° C | 70% | - | 0 mm | - | - | - |
| 1777988338 | 11.67° C | 68% | - | 0 mm | - | - | - |
| 1777988035 | 11.67° C | 70% | - | 0 mm | - | - | - |
| 1777987731 | 11.11° C | 70% | - | 0 mm | - | - | - |
| 1777987428 | 11.67° C | 70% | - | 0 mm | - | - | - |
| 1777987125 | 11.67° C | 69% | - | 0 mm | - | - | - |
| 1777986823 | 11.11° C | 70% | - | 0 mm | - | - | - |
| 1777986520 | 11.11° C | 70% | - | 0 mm | - | - | - |
* Rain latest hour (hover to see other rain measurements)
** Current wind speed in m/s (hover to see current wind gust speed)